sensor_id;sensor_type;location;lat;lon;timestamp;temperature;humidity
18131;DHT22;9191;54.324;10.126;2022-07-21T00:00:19;22.20;99.90
18131;DHT22;9191;54.324;10.126;2022-07-21T00:02:46;22.10;99.90
18131;DHT22;9191;54.324;10.126;2022-07-21T00:05:13;22.10;99.90
18131;DHT22;9191;54.324;10.126;2022-07-21T00:07:40;22.00;99.90
18131;DHT22;9191;54.324;10.126;2022-07-21T00:10:07;22.10;99.90
18131;DHT22;9191;54.324;10.126;2022-07-21T00:12:33;21.90;99.90
18131;DHT22;9191;54.324;10.126;2022-07-21T00:15:00;21.90;99.90
18131;DHT22;9191;54.324;10.126;2022-07-21T00:17:28;21.90;99.90
18131;DHT22;9191;54.324;10.126;2022-07-21T00:19:54;21.80;99.90
18131;DHT22;9191;54.324;10.126;2022-07-21T00:22:21;21.80;99.90
18131;DHT22;9191;54.324;10.126;2022-07-21T00:24:48;21.90;99.90
18131;DHT22;9191;54.324;10.126;2022-07-21T00:27:14;21.80;99.90
18131;DHT22;9191;54.324;10.126;2022-07-21T00:29:41;21.80;99.90
18131;DHT22;9191;54.324;10.126;2022-07-21T00:32:08;21.70;99.90
18131;DHT22;9191;54.324;10.126;2022-07-21T00:34:36;21.70;99.90
18131;DHT22;9191;54.324;10.126;2022-07-21T00:37:02;21.70;99.90
18131;DHT22;9191;54.324;10.126;2022-07-21T00:39:29;21.60;99.90
18131;DHT22;9191;54.324;10.126;2022-07-21T00:41:56;21.50;99.90
18131;DHT22;9191;54.324;10.126;2022-07-21T00:44:22;21.40;99.90
18131;DHT22;9191;54.324;10.126;2022-07-21T00:46:49;21.40;99.90
18131;DHT22;9191;54.324;10.126;2022-07-21T00:49:16;21.40;99.90
18131;DHT22;9191;54.324;10.126;2022-07-21T00:51:45;21.40;99.90
18131;DHT22;9191;54.324;10.126;2022-07-21T00:54:11;21.40;99.90
18131;DHT22;9191;54.324;10.126;2022-07-21T00:56:38;21.40;99.90
18131;DHT22;9191;54.324;10.126;2022-07-21T00:59:05;21.40;99.90
18131;DHT22;9191;54.324;10.126;2022-07-21T01:01:32;21.40;99.90
18131;DHT22;9191;54.324;10.126;2022-07-21T01:03:59;21.40;99.90
18131;DHT22;9191;54.324;10.126;2022-07-21T01:06:25;21.50;99.90
18131;DHT22;9191;54.324;10.126;2022-07-21T01:08:54;21.40;99.90
18131;DHT22;9191;54.324;10.126;2022-07-21T01:11:20;21.40;99.90
18131;DHT22;9191;54.324;10.126;2022-07-21T01:13:47;21.30;99.90
18131;DHT22;9191;54.324;10.126;2022-07-21T01:16:14;21.30;99.90
18131;DHT22;9191;54.324;10.126;2022-07-21T01:18:40;21.20;99.90
18131;DHT22;9191;54.324;10.126;2022-07-21T01:21:15;21.20;99.90
18131;DHT22;9191;54.324;10.126;2022-07-21T01:23:45;21.10;99.90
18131;DHT22;9191;54.324;10.126;2022-07-21T01:26:11;21.20;99.90
18131;DHT22;9191;54.324;10.126;2022-07-21T01:28:38;21.10;99.90
18131;DHT22;9191;54.324;10.126;2022-07-21T01:31:04;21.20;99.90
18131;DHT22;9191;54.324;10.126;2022-07-21T01:33:31;21.20;99.90
18131;DHT22;9191;54.324;10.126;2022-07-21T01:35:58;21.20;99.90
18131;DHT22;9191;54.324;10.126;2022-07-21T01:38:26;21.20;99.90
18131;DHT22;9191;54.324;10.126;2022-07-21T01:41:18;21.10;99.90
18131;DHT22;9191;54.324;10.126;2022-07-21T01:43:58;21.10;99.90
18131;DHT22;9191;54.324;10.126;2022-07-21T01:46:27;21.00;99.90
18131;DHT22;9191;54.324;10.126;2022-07-21T01:48:54;21.00;99.90
18131;DHT22;9191;54.324;10.126;2022-07-21T01:51:20;21.00;99.90
18131;DHT22;9191;54.324;10.126;2022-07-21T01:53:48;20.90;99.90
18131;DHT22;9191;54.324;10.126;2022-07-21T01:56:18;20.90;99.90
18131;DHT22;9191;54.324;10.126;2022-07-21T01:58:44;20.90;99.90
18131;DHT22;9191;54.324;10.126;2022-07-21T02:01:11;21.00;99.90
18131;DHT22;9191;54.324;10.126;2022-07-21T02:03:38;21.00;99.90
18131;DHT22;9191;54.324;10.126;2022-07-21T02:06:04;20.80;99.90
18131;DHT22;9191;54.324;10.126;2022-07-21T02:08:33;20.90;99.90
18131;DHT22;9191;54.324;10.126;2022-07-21T02:11:02;20.90;99.90
18131;DHT22;9191;54.324;10.126;2022-07-21T02:13:28;21.00;99.90
18131;DHT22;9191;54.324;10.126;2022-07-21T02:15:55;21.00;99.90
18131;DHT22;9191;54.324;10.126;2022-07-21T02:18:22;21.00;99.90
18131;DHT22;9191;54.324;10.126;2022-07-21T02:20:48;20.90;99.90
18131;DHT22;9191;54.324;10.126;2022-07-21T02:23:15;20.90;99.90
18131;DHT22;9191;54.324;10.126;2022-07-21T02:25:42;20.90;99.90
18131;DHT22;9191;54.324;10.126;2022-07-21T02:28:11;20.80;99.90
18131;DHT22;9191;54.324;10.126;2022-07-21T02:30:37;20.90;99.90
18131;DHT22;9191;54.324;10.126;2022-07-21T02:33:04;21.00;99.90
18131;DHT22;9191;54.324;10.126;2022-07-21T02:35:31;20.90;99.90
18131;DHT22;9191;54.324;10.126;2022-07-21T02:37:58;20.80;99.90
18131;DHT22;9191;54.324;10.126;2022-07-21T02:40:24;20.70;99.90
18131;DHT22;9191;54.324;10.126;2022-07-21T02:42:51;20.70;99.90
18131;DHT22;9191;54.324;10.126;2022-07-21T02:45:19;20.60;99.90
18131;DHT22;9191;54.324;10.126;2022-07-21T02:47:50;20.60;99.90
18131;DHT22;9191;54.324;10.126;2022-07-21T02:50:16;20.70;99.90
18131;DHT22;9191;54.324;10.126;2022-07-21T02:52:44;20.60;99.90
18131;DHT22;9191;54.324;10.126;2022-07-21T02:55:10;20.60;99.90
18131;DHT22;9191;54.324;10.126;2022-07-21T02:57:37;20.70;99.90
18131;DHT22;9191;54.324;10.126;2022-07-21T03:00:04;20.60;99.90
18131;DHT22;9191;54.324;10.126;2022-07-21T03:02:32;20.50;99.90
18131;DHT22;9191;54.324;10.126;2022-07-21T03:04:59;20.50;99.90
18131;DHT22;9191;54.324;10.126;2022-07-21T03:07:25;20.60;99.90
18131;DHT22;9191;54.324;10.126;2022-07-21T03:09:52;20.60;99.90
18131;DHT22;9191;54.324;10.126;2022-07-21T03:12:19;20.60;99.90
18131;DHT22;9191;54.324;10.126;2022-07-21T03:14:45;20.50;99.90
18131;DHT22;9191;54.324;10.126;2022-07-21T03:17:12;20.30;99.90
18131;DHT22;9191;54.324;10.126;2022-07-21T03:19:40;20.30;99.90
18131;DHT22;9191;54.324;10.126;2022-07-21T03:22:06;20.30;99.90
18131;DHT22;9191;54.324;10.126;2022-07-21T03:24:33;20.30;99.90
18131;DHT22;9191;54.324;10.126;2022-07-21T03:27:00;20.20;99.90
18131;DHT22;9191;54.324;10.126;2022-07-21T03:29:26;20.20;99.90
18131;DHT22;9191;54.324;10.126;2022-07-21T03:31:53;20.30;99.90
18131;DHT22;9191;54.324;10.126;2022-07-21T03:34:20;20.20;99.90
18131;DHT22;9191;54.324;10.126;2022-07-21T03:36:48;20.10;99.90
18131;DHT22;9191;54.324;10.126;2022-07-21T03:39:15;20.10;99.90
18131;DHT22;9191;54.324;10.126;2022-07-21T03:41:41;20.10;99.90
18131;DHT22;9191;54.324;10.126;2022-07-21T03:44:08;20.20;99.90
18131;DHT22;9191;54.324;10.126;2022-07-21T03:46:36;20.10;99.90
18131;DHT22;9191;54.324;10.126;2022-07-21T03:49:06;20.10;99.90
18131;DHT22;9191;54.324;10.126;2022-07-21T03:51:33;20.20;99.90
18131;DHT22;9191;54.324;10.126;2022-07-21T03:54:01;20.20;99.90
18131;DHT22;9191;54.324;10.126;2022-07-21T03:56:28;20.20;99.90
18131;DHT22;9191;54.324;10.126;2022-07-21T03:58:54;20.10;99.90
18131;DHT22;9191;54.324;10.126;2022-07-21T04:01:21;20.20;99.90
18131;DHT22;9191;54.324;10.126;2022-07-21T04:03:48;20.20;99.90
18131;DHT22;9191;54.324;10.126;2022-07-21T04:06:14;20.20;99.90
18131;DHT22;9191;54.324;10.126;2022-07-21T04:08:41;20.10;99.90
18131;DHT22;9191;54.324;10.126;2022-07-21T04:11:09;20.10;99.90
18131;DHT22;9191;54.324;10.126;2022-07-21T04:13:35;20.00;99.90
18131;DHT22;9191;54.324;10.126;2022-07-21T04:16:02;20.00;99.90
18131;DHT22;9191;54.324;10.126;2022-07-21T04:18:29;19.90;99.90
18131;DHT22;9191;54.324;10.126;2022-07-21T04:20:55;19.90;99.90
18131;DHT22;9191;54.324;10.126;2022-07-21T04:23:22;20.00;99.90
18131;DHT22;9191;54.324;10.126;2022-07-21T04:25:49;19.90;99.90
18131;DHT22;9191;54.324;10.126;2022-07-21T04:28:17;19.80;99.90
18131;DHT22;9191;54.324;10.126;2022-07-21T04:30:43;19.80;99.90
18131;DHT22;9191;54.324;10.126;2022-07-21T04:33:10;19.70;99.90
18131;DHT22;9191;54.324;10.126;2022-07-21T04:35:37;19.80;99.90
18131;DHT22;9191;54.324;10.126;2022-07-21T04:38:03;19.90;99.90
18131;DHT22;9191;54.324;10.126;2022-07-21T04:40:30;20.00;99.90
18131;DHT22;9191;54.324;10.126;2022-07-21T04:42:57;20.10;99.90
18131;DHT22;9191;54.324;10.126;2022-07-21T04:45:25;20.30;99.90
18131;DHT22;9191;54.324;10.126;2022-07-21T04:47:52;20.30;99.90
18131;DHT22;9191;54.324;10.126;2022-07-21T04:50:20;20.40;99.90
18131;DHT22;9191;54.324;10.126;2022-07-21T04:52:47;20.40;99.90
18131;DHT22;9191;54.324;10.126;2022-07-21T04:55:14;20.30;99.90
18131;DHT22;9191;54.324;10.126;2022-07-21T04:57:42;20.30;99.90
18131;DHT22;9191;54.324;10.126;2022-07-21T05:00:10;20.30;99.90
18131;DHT22;9191;54.324;10.126;2022-07-21T05:02:39;20.30;99.90
18131;DHT22;9191;54.324;10.126;2022-07-21T05:05:06;20.30;99.90
18131;DHT22;9191;54.324;10.126;2022-07-21T05:07:33;20.40;99.90
18131;DHT22;9191;54.324;10.126;2022-07-21T05:10:02;20.50;99.90
18131;DHT22;9191;54.324;10.126;2022-07-21T05:12:29;20.60;99.90
18131;DHT22;9191;54.324;10.126;2022-07-21T05:14:56;20.60;99.90
18131;DHT22;9191;54.324;10.126;2022-07-21T05:17:22;20.70;99.90
18131;DHT22;9191;54.324;10.126;2022-07-21T05:19:50;20.70;99.90
18131;DHT22;9191;54.324;10.126;2022-07-21T05:22:17;20.80;99.90
18131;DHT22;9191;54.324;10.126;2022-07-21T05:24:44;20.80;99.90
18131;DHT22;9191;54.324;10.126;2022-07-21T05:27:10;20.80;99.90
18131;DHT22;9191;54.324;10.126;2022-07-21T05:29:37;20.70;99.90
18131;DHT22;9191;54.324;10.126;2022-07-21T05:32:04;20.70;99.90
18131;DHT22;9191;54.324;10.126;2022-07-21T05:34:31;20.70;99.90
18131;DHT22;9191;54.324;10.126;2022-07-21T05:36:59;20.80;99.90
18131;DHT22;9191;54.324;10.126;2022-07-21T05:39:25;20.60;99.90
18131;DHT22;9191;54.324;10.126;2022-07-21T05:41:52;20.60;99.90
18131;DHT22;9191;54.324;10.126;2022-07-21T05:44:18;20.70;99.90
18131;DHT22;9191;54.324;10.126;2022-07-21T05:46:45;20.70;99.90
18131;DHT22;9191;54.324;10.126;2022-07-21T05:49:12;20.90;99.90
18131;DHT22;9191;54.324;10.126;2022-07-21T05:51:38;21.00;99.90
18131;DHT22;9191;54.324;10.126;2022-07-21T05:54:06;21.10;99.90
18131;DHT22;9191;54.324;10.126;2022-07-21T05:56:33;21.30;99.90
18131;DHT22;9191;54.324;10.126;2022-07-21T05:58:59;21.40;99.90
18131;DHT22;9191;54.324;10.126;2022-07-21T06:01:26;21.40;99.90
18131;DHT22;9191;54.324;10.126;2022-07-21T06:03:53;21.40;99.90
18131;DHT22;9191;54.324;10.126;2022-07-21T06:06:19;21.30;99.90
18131;DHT22;9191;54.324;10.126;2022-07-21T06:08:48;21.50;99.90
18131;DHT22;9191;54.324;10.126;2022-07-21T06:11:17;21.50;99.90
18131;DHT22;9191;54.324;10.126;2022-07-21T06:13:44;21.60;99.90
18131;DHT22;9191;54.324;10.126;2022-07-21T06:16:11;21.70;99.90
18131;DHT22;9191;54.324;10.126;2022-07-21T06:18:38;21.90;99.90
18131;DHT22;9191;54.324;10.126;2022-07-21T06:21:05;22.00;99.90
18131;DHT22;9191;54.324;10.126;2022-07-21T06:23:32;22.10;99.90
18131;DHT22;9191;54.324;10.126;2022-07-21T06:25:58;22.20;99.90
18131;DHT22;9191;54.324;10.126;2022-07-21T06:28:26;22.20;99.90
18131;DHT22;9191;54.324;10.126;2022-07-21T06:30:53;22.20;99.90
18131;DHT22;9191;54.324;10.126;2022-07-21T06:33:20;22.30;99.90
18131;DHT22;9191;54.324;10.126;2022-07-21T06:35:46;22.40;99.90
18131;DHT22;9191;54.324;10.126;2022-07-21T06:38:13;22.50;99.90
18131;DHT22;9191;54.324;10.126;2022-07-21T06:40:40;22.40;99.90
18131;DHT22;9191;54.324;10.126;2022-07-21T06:43:06;22.60;99.90
18131;DHT22;9191;54.324;10.126;2022-07-21T06:45:34;22.70;99.90
18131;DHT22;9191;54.324;10.126;2022-07-21T06:48:02;22.70;99.90
18131;DHT22;9191;54.324;10.126;2022-07-21T06:50:29;22.80;99.90
18131;DHT22;9191;54.324;10.126;2022-07-21T06:52:56;22.70;99.90
18131;DHT22;9191;54.324;10.126;2022-07-21T06:55:22;22.70;99.90
18131;DHT22;9191;54.324;10.126;2022-07-21T06:57:49;22.70;99.90
18131;DHT22;9191;54.324;10.126;2022-07-21T07:00:16;22.80;99.90
18131;DHT22;9191;54.324;10.126;2022-07-21T07:02:44;22.90;99.90
18131;DHT22;9191;54.324;10.126;2022-07-21T07:05:11;22.90;99.90
18131;DHT22;9191;54.324;10.126;2022-07-21T07:07:38;22.90;99.90
18131;DHT22;9191;54.324;10.126;2022-07-21T07:10:05;22.90;99.90
18131;DHT22;9191;54.324;10.126;2022-07-21T07:12:31;22.90;99.90
18131;DHT22;9191;54.324;10.126;2022-07-21T07:14:58;22.80;99.90
18131;DHT22;9191;54.324;10.126;2022-07-21T07:17:25;22.90;99.90
18131;DHT22;9191;54.324;10.126;2022-07-21T07:19:53;22.80;99.90
18131;DHT22;9191;54.324;10.126;2022-07-21T07:22:19;22.80;99.90
18131;DHT22;9191;54.324;10.126;2022-07-21T07:24:46;22.90;99.90
18131;DHT22;9191;54.324;10.126;2022-07-21T07:27:13;23.00;99.90
18131;DHT22;9191;54.324;10.126;2022-07-21T07:29:40;23.10;99.90
18131;DHT22;9191;54.324;10.126;2022-07-21T07:32:06;23.20;99.90
18131;DHT22;9191;54.324;10.126;2022-07-21T07:34:33;23.20;99.90
18131;DHT22;9191;54.324;10.126;2022-07-21T07:37:01;23.10;99.90
18131;DHT22;9191;54.324;10.126;2022-07-21T07:39:27;23.30;99.90
18131;DHT22;9191;54.324;10.126;2022-07-21T07:41:54;23.20;99.90
18131;DHT22;9191;54.324;10.126;2022-07-21T07:44:21;23.40;99.90
18131;DHT22;9191;54.324;10.126;2022-07-21T07:46:48;23.60;99.90
18131;DHT22;9191;54.324;10.126;2022-07-21T07:49:15;23.80;99.90
18131;DHT22;9191;54.324;10.126;2022-07-21T07:51:42;24.00;99.90
18131;DHT22;9191;54.324;10.126;2022-07-21T07:54:10;24.30;99.90
18131;DHT22;9191;54.324;10.126;2022-07-21T07:56:36;24.60;99.90
18131;DHT22;9191;54.324;10.126;2022-07-21T07:59:03;25.20;99.90
18131;DHT22;9191;54.324;10.126;2022-07-21T08:01:30;25.50;99.90
18131;DHT22;9191;54.324;10.126;2022-07-21T08:03:56;25.70;99.90
18131;DHT22;9191;54.324;10.126;2022-07-21T08:06:25;25.60;99.90
18131;DHT22;9191;54.324;10.126;2022-07-21T08:08:51;25.60;99.90
18131;DHT22;9191;54.324;10.126;2022-07-21T08:11:19;25.60;99.90
18131;DHT22;9191;54.324;10.126;2022-07-21T08:13:46;25.50;99.90
18131;DHT22;9191;54.324;10.126;2022-07-21T08:16:13;25.40;99.90
18131;DHT22;9191;54.324;10.126;2022-07-21T08:18:40;25.20;99.90
18131;DHT22;9191;54.324;10.126;2022-07-21T08:21:07;25.10;99.90
18131;DHT22;9191;54.324;10.126;2022-07-21T08:23:34;25.10;99.90
18131;DHT22;9191;54.324;10.126;2022-07-21T08:26:01;24.90;99.90
18131;DHT22;9191;54.324;10.126;2022-07-21T08:28:29;24.90;99.90
18131;DHT22;9191;54.324;10.126;2022-07-21T08:30:55;24.70;99.90
18131;DHT22;9191;54.324;10.126;2022-07-21T08:33:22;24.60;99.90
18131;DHT22;9191;54.324;10.126;2022-07-21T08:35:50;24.40;99.90
18131;DHT22;9191;54.324;10.126;2022-07-21T08:38:17;24.40;99.90
18131;DHT22;9191;54.324;10.126;2022-07-21T08:40:45;24.20;99.90
18131;DHT22;9191;54.324;10.126;2022-07-21T08:43:12;24.10;99.90
18131;DHT22;9191;54.324;10.126;2022-07-21T08:45:41;24.20;99.90
18131;DHT22;9191;54.324;10.126;2022-07-21T08:48:08;24.10;99.90
18131;DHT22;9191;54.324;10.126;2022-07-21T08:50:36;24.00;99.90
18131;DHT22;9191;54.324;10.126;2022-07-21T08:53:02;24.10;99.90
18131;DHT22;9191;54.324;10.126;2022-07-21T08:55:29;24.20;99.90
18131;DHT22;9191;54.324;10.126;2022-07-21T08:57:56;24.40;99.90
18131;DHT22;9191;54.324;10.126;2022-07-21T09:00:23;24.60;99.90
18131;DHT22;9191;54.324;10.126;2022-07-21T09:02:51;24.70;99.90
18131;DHT22;9191;54.324;10.126;2022-07-21T09:05:33;25.00;99.90
18131;DHT22;9191;54.324;10.126;2022-07-21T09:08:00;25.10;99.90
18131;DHT22;9191;54.324;10.126;2022-07-21T09:10:28;25.10;99.90
18131;DHT22;9191;54.324;10.126;2022-07-21T09:12:55;24.90;99.90
18131;DHT22;9191;54.324;10.126;2022-07-21T09:15:22;24.70;99.90
18131;DHT22;9191;54.324;10.126;2022-07-21T09:18:04;24.40;99.90
18131;DHT22;9191;54.324;10.126;2022-07-21T09:20:31;24.40;99.90
18131;DHT22;9191;54.324;10.126;2022-07-21T09:23:01;24.40;99.90
18131;DHT22;9191;54.324;10.126;2022-07-21T09:25:35;24.30;99.90
18131;DHT22;9191;54.324;10.126;2022-07-21T09:28:06;24.30;99.90
18131;DHT22;9191;54.324;10.126;2022-07-21T09:30:33;24.20;99.90
18131;DHT22;9191;54.324;10.126;2022-07-21T09:33:19;24.10;99.90
18131;DHT22;9191;54.324;10.126;2022-07-21T09:35:55;24.10;99.90
18131;DHT22;9191;54.324;10.126;2022-07-21T09:38:22;24.10;99.90
18131;DHT22;9191;54.324;10.126;2022-07-21T09:40:49;24.40;99.90
18131;DHT22;9191;54.324;10.126;2022-07-21T09:43:30;24.50;99.90
18131;DHT22;9191;54.324;10.126;2022-07-21T09:45:59;24.70;99.90
18131;DHT22;9191;54.324;10.126;2022-07-21T09:48:31;24.60;99.90
18131;DHT22;9191;54.324;10.126;2022-07-21T09:50:58;25.00;99.90
18131;DHT22;9191;54.324;10.126;2022-07-21T09:53:48;25.80;99.90
18131;DHT22;9191;54.324;10.126;2022-07-21T09:56:16;27.30;99.90
18131;DHT22;9191;54.324;10.126;2022-07-21T09:58:42;28.00;99.90
18131;DHT22;9191;54.324;10.126;2022-07-21T10:01:10;28.70;99.90
18131;DHT22;9191;54.324;10.126;2022-07-21T10:03:46;29.40;99.90
18131;DHT22;9191;54.324;10.126;2022-07-21T10:06:17;30.10;99.90
18131;DHT22;9191;54.324;10.126;2022-07-21T10:08:46;29.20;99.90
18131;DHT22;9191;54.324;10.126;2022-07-21T10:11:13;28.90;99.90
18131;DHT22;9191;54.324;10.126;2022-07-21T10:13:40;29.20;99.90
18131;DHT22;9191;54.324;10.126;2022-07-21T10:16:10;30.10;99.90
18131;DHT22;9191;54.324;10.126;2022-07-21T10:18:42;30.50;99.90
18131;DHT22;9191;54.324;10.126;2022-07-21T10:21:18;30.90;99.90
18131;DHT22;9191;54.324;10.126;2022-07-21T10:23:52;31.00;99.90
18131;DHT22;9191;54.324;10.126;2022-07-21T10:26:20;31.60;99.90
18131;DHT22;9191;54.324;10.126;2022-07-21T10:28:47;31.40;99.90
18131;DHT22;9191;54.324;10.126;2022-07-21T10:31:16;30.90;99.90
18131;DHT22;9191;54.324;10.126;2022-07-21T10:34:03;30.60;99.90
18131;DHT22;9191;54.324;10.126;2022-07-21T10:36:46;29.80;99.90
18131;DHT22;9191;54.324;10.126;2022-07-21T10:41:55;28.70;99.90
18131;DHT22;9191;54.324;10.126;2022-07-21T10:44:47;28.30;99.90
18131;DHT22;9191;54.324;10.126;2022-07-21T10:47:14;27.60;99.90
18131;DHT22;9191;54.324;10.126;2022-07-21T10:49:52;27.30;99.90
18131;DHT22;9191;54.324;10.126;2022-07-21T10:55:13;26.90;99.90
18131;DHT22;9191;54.324;10.126;2022-07-21T10:57:42;27.00;99.90
18131;DHT22;9191;54.324;10.126;2022-07-21T11:00:19;26.80;99.90
18131;DHT22;9191;54.324;10.126;2022-07-21T11:02:47;26.50;99.90
18131;DHT22;9191;54.324;10.126;2022-07-21T11:05:16;26.10;99.90
18131;DHT22;9191;54.324;10.126;2022-07-21T11:10:28;26.00;99.90
18131;DHT22;9191;54.324;10.126;2022-07-21T11:12:57;27.20;99.90
18131;DHT22;9191;54.324;10.126;2022-07-21T11:15:57;28.30;99.90
18131;DHT22;9191;54.324;10.126;2022-07-21T11:18:26;29.10;99.90
18131;DHT22;9191;54.324;10.126;2022-07-21T11:21:05;29.80;99.90
18131;DHT22;9191;54.324;10.126;2022-07-21T11:23:36;30.60;99.90
18131;DHT22;9191;54.324;10.126;2022-07-21T11:26:03;31.40;99.90
18131;DHT22;9191;54.324;10.126;2022-07-21T11:28:30;32.00;99.90
18131;DHT22;9191;54.324;10.126;2022-07-21T11:31:05;31.70;99.90
18131;DHT22;9191;54.324;10.126;2022-07-21T11:33:32;30.50;99.90
18131;DHT22;9191;54.324;10.126;2022-07-21T11:35:59;30.80;99.90
18131;DHT22;9191;54.324;10.126;2022-07-21T11:38:27;30.60;99.90
18131;DHT22;9191;54.324;10.126;2022-07-21T11:40:53;30.90;99.90
18131;DHT22;9191;54.324;10.126;2022-07-21T11:43:29;30.60;99.90
18131;DHT22;9191;54.324;10.126;2022-07-21T11:46:05;30.50;99.90
18131;DHT22;9191;54.324;10.126;2022-07-21T11:48:32;31.10;99.90
18131;DHT22;9191;54.324;10.126;2022-07-21T11:50:59;30.90;99.90
18131;DHT22;9191;54.324;10.126;2022-07-21T11:53:27;30.30;99.90
18131;DHT22;9191;54.324;10.126;2022-07-21T11:55:54;29.90;99.90
18131;DHT22;9191;54.324;10.126;2022-07-21T11:58:21;29.40;99.90
18131;DHT22;9191;54.324;10.126;2022-07-21T12:00:48;29.50;99.90
18131;DHT22;9191;54.324;10.126;2022-07-21T12:03:15;29.80;99.90
18131;DHT22;9191;54.324;10.126;2022-07-21T12:05:42;29.80;99.90
18131;DHT22;9191;54.324;10.126;2022-07-21T12:08:09;29.40;99.90
18131;DHT22;9191;54.324;10.126;2022-07-21T12:10:37;29.30;99.90
18131;DHT22;9191;54.324;10.126;2022-07-21T12:13:05;28.80;99.90
18131;DHT22;9191;54.324;10.126;2022-07-21T12:15:33;28.30;99.90
18131;DHT22;9191;54.324;10.126;2022-07-21T12:18:01;28.00;99.90
18131;DHT22;9191;54.324;10.126;2022-07-21T12:20:29;28.10;99.90
18131;DHT22;9191;54.324;10.126;2022-07-21T12:22:56;28.00;99.90
18131;DHT22;9191;54.324;10.126;2022-07-21T12:25:30;27.90;99.90
18131;DHT22;9191;54.324;10.126;2022-07-21T12:27:58;27.60;99.90
18131;DHT22;9191;54.324;10.126;2022-07-21T12:30:33;27.30;99.90
18131;DHT22;9191;54.324;10.126;2022-07-21T12:33:01;27.20;99.90
18131;DHT22;9191;54.324;10.126;2022-07-21T12:35:31;27.20;99.90
18131;DHT22;9191;54.324;10.126;2022-07-21T12:38:00;27.10;99.90
18131;DHT22;9191;54.324;10.126;2022-07-21T12:40:27;27.70;99.90
18131;DHT22;9191;54.324;10.126;2022-07-21T12:43:06;27.80;99.90
18131;DHT22;9191;54.324;10.126;2022-07-21T12:48:17;27.70;99.90
18131;DHT22;9191;54.324;10.126;2022-07-21T12:50:56;28.00;99.90
18131;DHT22;9191;54.324;10.126;2022-07-21T12:53:23;27.40;99.90
18131;DHT22;9191;54.324;10.126;2022-07-21T12:55:49;27.10;99.90
18131;DHT22;9191;54.324;10.126;2022-07-21T12:58:17;27.00;99.90
18131;DHT22;9191;54.324;10.126;2022-07-21T13:00:44;26.70;99.90
18131;DHT22;9191;54.324;10.126;2022-07-21T13:03:11;26.60;99.90
18131;DHT22;9191;54.324;10.126;2022-07-21T13:05:38;26.50;99.90
18131;DHT22;9191;54.324;10.126;2022-07-21T13:08:05;26.60;99.90
18131;DHT22;9191;54.324;10.126;2022-07-21T13:10:31;26.50;99.90
18131;DHT22;9191;54.324;10.126;2022-07-21T13:12:58;26.90;99.90
18131;DHT22;9191;54.324;10.126;2022-07-21T13:15:26;27.60;99.90
18131;DHT22;9191;54.324;10.126;2022-07-21T13:17:53;28.70;99.90
18131;DHT22;9191;54.324;10.126;2022-07-21T13:20:20;29.10;99.90
18131;DHT22;9191;54.324;10.126;2022-07-21T13:22:47;29.10;99.90
18131;DHT22;9191;54.324;10.126;2022-07-21T13:25:14;29.50;99.90
18131;DHT22;9191;54.324;10.126;2022-07-21T13:27:41;29.00;99.90
18131;DHT22;9191;54.324;10.126;2022-07-21T13:30:08;28.60;99.90
18131;DHT22;9191;54.324;10.126;2022-07-21T13:32:37;28.10;99.90
18131;DHT22;9191;54.324;10.126;2022-07-21T13:35:05;28.00;99.90
18131;DHT22;9191;54.324;10.126;2022-07-21T13:37:31;27.90;99.90
18131;DHT22;9191;54.324;10.126;2022-07-21T13:39:58;28.00;99.90
18131;DHT22;9191;54.324;10.126;2022-07-21T13:42:25;27.70;99.90
18131;DHT22;9191;54.324;10.126;2022-07-21T13:44:52;27.30;99.90
18131;DHT22;9191;54.324;10.126;2022-07-21T13:47:18;27.70;99.90
18131;DHT22;9191;54.324;10.126;2022-07-21T13:49:47;29.10;99.90
18131;DHT22;9191;54.324;10.126;2022-07-21T13:52:13;30.00;99.90
18131;DHT22;9191;54.324;10.126;2022-07-21T13:54:40;29.70;99.90
18131;DHT22;9191;54.324;10.126;2022-07-21T13:57:07;30.80;99.90
18131;DHT22;9191;54.324;10.126;2022-07-21T13:59:34;30.90;99.90
18131;DHT22;9191;54.324;10.126;2022-07-21T14:02:01;31.10;99.90
18131;DHT22;9191;54.324;10.126;2022-07-21T14:04:28;31.50;99.90
18131;DHT22;9191;54.324;10.126;2022-07-21T14:06:56;32.00;99.90
18131;DHT22;9191;54.324;10.126;2022-07-21T14:09:23;32.20;99.90
18131;DHT22;9191;54.324;10.126;2022-07-21T14:11:49;32.20;99.90
18131;DHT22;9191;54.324;10.126;2022-07-21T14:14:16;32.70;99.90
18131;DHT22;9191;54.324;10.126;2022-07-21T14:16:47;31.60;99.90
18131;DHT22;9191;54.324;10.126;2022-07-21T14:19:14;31.60;99.90
18131;DHT22;9191;54.324;10.126;2022-07-21T14:21:41;31.50;99.90
18131;DHT22;9191;54.324;10.126;2022-07-21T14:24:09;32.00;99.90
18131;DHT22;9191;54.324;10.126;2022-07-21T14:26:53;32.60;99.90
18131;DHT22;9191;54.324;10.126;2022-07-21T14:29:20;32.70;99.90
18131;DHT22;9191;54.324;10.126;2022-07-21T14:31:47;32.30;99.90
18131;DHT22;9191;54.324;10.126;2022-07-21T14:34:14;32.20;99.90
18131;DHT22;9191;54.324;10.126;2022-07-21T14:36:41;31.90;99.90
18131;DHT22;9191;54.324;10.126;2022-07-21T14:39:10;31.00;99.90
18131;DHT22;9191;54.324;10.126;2022-07-21T14:41:36;30.50;99.90
18131;DHT22;9191;54.324;10.126;2022-07-21T14:44:04;31.30;99.90
18131;DHT22;9191;54.324;10.126;2022-07-21T14:46:30;31.60;99.90
18131;DHT22;9191;54.324;10.126;2022-07-21T14:48:57;31.00;99.90
18131;DHT22;9191;54.324;10.126;2022-07-21T14:51:24;30.80;99.90
18131;DHT22;9191;54.324;10.126;2022-07-21T14:53:50;30.10;99.90
18131;DHT22;9191;54.324;10.126;2022-07-21T14:56:18;29.30;99.90
18131;DHT22;9191;54.324;10.126;2022-07-21T14:58:45;28.70;99.90
18131;DHT22;9191;54.324;10.126;2022-07-21T15:01:12;28.30;99.90
18131;DHT22;9191;54.324;10.126;2022-07-21T15:03:38;27.80;99.90
18131;DHT22;9191;54.324;10.126;2022-07-21T15:06:05;27.90;99.90
18131;DHT22;9191;54.324;10.126;2022-07-21T15:08:32;27.90;99.90
18131;DHT22;9191;54.324;10.126;2022-07-21T15:10:59;27.70;99.90
18131;DHT22;9191;54.324;10.126;2022-07-21T15:13:28;27.80;99.90
18131;DHT22;9191;54.324;10.126;2022-07-21T15:15:56;27.10;99.90
18131;DHT22;9191;54.324;10.126;2022-07-21T15:18:23;26.80;99.90
18131;DHT22;9191;54.324;10.126;2022-07-21T15:20:50;26.60;99.90
18131;DHT22;9191;54.324;10.126;2022-07-21T15:23:16;26.60;99.90
18131;DHT22;9191;54.324;10.126;2022-07-21T15:25:43;26.60;99.90
18131;DHT22;9191;54.324;10.126;2022-07-21T15:28:10;26.70;99.90
18131;DHT22;9191;54.324;10.126;2022-07-21T15:30:38;26.80;99.90
18131;DHT22;9191;54.324;10.126;2022-07-21T15:33:05;26.80;99.90
18131;DHT22;9191;54.324;10.126;2022-07-21T15:35:31;26.80;99.90
18131;DHT22;9191;54.324;10.126;2022-07-21T15:37:58;26.60;99.90
18131;DHT22;9191;54.324;10.126;2022-07-21T15:40:25;26.60;99.90
18131;DHT22;9191;54.324;10.126;2022-07-21T15:42:51;26.90;99.90
18131;DHT22;9191;54.324;10.126;2022-07-21T15:45:18;26.80;99.90